createdAt,value
2023-01-08T00:02:51.781Z,93.04
2023-01-08T00:05:54.611Z,93.11
2023-01-08T00:08:57.603Z,92.70
2023-01-08T00:12:00.073Z,92.26
2023-01-08T00:15:06.042Z,92.47
2023-01-08T00:18:08.528Z,92.85
2023-01-08T00:21:12.156Z,92.86
2023-01-08T00:24:15.013Z,93.00
2023-01-08T00:27:17.816Z,92.88
2023-01-08T00:30:20.502Z,92.94
2023-01-08T00:33:23.175Z,92.78
2023-01-08T00:36:26.033Z,92.49
2023-01-08T00:39:29.073Z,92.70
2023-01-08T00:42:31.813Z,92.57
2023-01-08T00:45:35.080Z,92.56
2023-01-08T00:48:38.940Z,92.63
2023-01-08T00:51:42.085Z,92.80
2023-01-08T00:54:44.758Z,93.11
2023-01-08T00:57:47.486Z,92.84
2023-01-08T01:00:50.180Z,92.86
2023-01-08T01:03:53.140Z,92.88
2023-01-08T01:06:55.859Z,93.27
2023-01-08T01:09:59.122Z,93.19
2023-01-08T01:13:01.545Z,93.21
2023-01-08T01:16:04.708Z,93.26
2023-01-08T01:19:07.514Z,93.36
2023-01-08T01:22:10.479Z,93.07
2023-01-08T01:25:13.354Z,92.96
2023-01-08T01:28:17.195Z,92.96
2023-01-08T01:31:21.087Z,93.18
2023-01-08T01:34:23.926Z,93.18
2023-01-08T01:37:27.975Z,92.67
2023-01-08T01:40:32.374Z,92.67
2023-01-08T01:43:43.376Z,92.47
2023-01-08T01:46:48.490Z,92.51
2023-01-08T01:49:57.856Z,92.53
2023-01-08T01:53:16.679Z,92.66
2023-01-08T01:56:19.727Z,92.50
2023-01-08T01:59:22.861Z,92.12
2023-01-08T02:02:26.072Z,91.74
2023-01-08T02:05:38.830Z,92.06
2023-01-08T02:09:00.819Z,91.95
2023-01-08T02:12:18.169Z,91.94
2023-01-08T02:15:34.773Z,92.00
2023-01-08T02:18:46.235Z,91.45
2023-01-08T02:22:02.946Z,91.30
2023-01-08T02:25:11.581Z,91.57
2023-01-08T02:28:15.571Z,91.83
2023-01-08T02:31:22.234Z,91.90
2023-01-08T02:34:24.760Z,91.50
2023-01-08T02:37:27.963Z,91.63
2023-01-08T02:40:47.719Z,91.52
2023-01-08T02:43:54.032Z,91.31
2023-01-08T02:46:58.608Z,91.76
2023-01-08T02:50:11.686Z,91.52
2023-01-08T02:53:16.780Z,92.16
2023-01-08T02:56:24.978Z,91.67
2023-01-08T02:59:31.670Z,90.93
2023-01-08T03:02:37.031Z,90.80
2023-01-08T03:05:42.680Z,90.99
2023-01-08T03:08:48.191Z,91.02
2023-01-08T03:12:01.975Z,91.10
2023-01-08T03:15:13.129Z,91.12
2023-01-08T03:18:30.008Z,90.97
2023-01-08T03:21:35.530Z,91.22
2023-01-08T03:24:41.331Z,90.75
2023-01-08T03:27:48.195Z,90.61
2023-01-08T03:30:54.014Z,90.70
2023-01-08T03:33:57.815Z,90.58
2023-01-08T03:37:03.231Z,90.63
2023-01-08T03:40:13.096Z,90.60
2023-01-08T03:43:16.066Z,90.91
2023-01-08T03:46:31.000Z,90.67
2023-01-08T03:49:35.242Z,91.03
2023-01-08T03:52:38.080Z,90.95
2023-01-08T03:55:40.628Z,90.83
2023-01-08T03:58:43.681Z,90.96
2023-01-08T04:01:47.075Z,90.54
2023-01-08T04:04:49.957Z,90.78
2023-01-08T04:07:56.703Z,91.38
2023-01-08T04:10:59.473Z,91.26
2023-01-08T04:14:02.187Z,91.38
2023-01-08T04:17:05.295Z,91.42
2023-01-08T04:20:08.671Z,91.72
2023-01-08T04:23:11.822Z,92.20
2023-01-08T04:26:14.274Z,92.36
2023-01-08T04:29:17.768Z,92.86
2023-01-08T04:32:20.630Z,92.59
2023-01-08T04:35:24.065Z,92.32
2023-01-08T04:38:27.282Z,92.03
2023-01-08T04:41:30.078Z,92.36
2023-01-08T04:44:32.691Z,92.91
2023-01-08T04:47:35.776Z,92.86
2023-01-08T04:50:38.232Z,92.36
2023-01-08T04:53:41.718Z,92.27
2023-01-08T04:56:44.108Z,91.45
2023-01-08T04:59:46.896Z,91.68
2023-01-08T05:02:49.751Z,91.81
2023-01-08T05:05:52.591Z,91.96
2023-01-08T05:08:55.302Z,92.87
2023-01-08T05:11:58.414Z,93.36
2023-01-08T05:15:01.116Z,93.33
2023-01-08T05:18:06.976Z,93.49
2023-01-08T05:21:09.663Z,93.37
2023-01-08T05:24:12.292Z,93.48
2023-01-08T05:27:14.939Z,93.63
2023-01-08T05:30:17.635Z,93.57
2023-01-08T05:33:20.709Z,92.94
2023-01-08T05:36:23.183Z,92.34
2023-01-08T05:39:25.815Z,92.00
2023-01-08T05:42:28.533Z,92.46
2023-01-08T05:45:31.920Z,91.97
2023-01-08T05:48:35.942Z,91.74
2023-01-08T05:51:38.322Z,91.48
2023-01-08T05:54:41.089Z,91.61
2023-01-08T05:57:43.545Z,91.84
2023-01-08T06:00:47.211Z,91.88
2023-01-08T06:03:50.097Z,92.14
2023-01-08T06:06:52.961Z,92.20
2023-01-08T06:09:56.000Z,93.30
2023-01-08T06:12:58.895Z,93.81
2023-01-08T06:16:02.311Z,93.35
2023-01-08T06:19:05.580Z,92.93
2023-01-08T06:22:08.024Z,92.60
2023-01-08T06:25:11.215Z,92.78
2023-01-08T06:28:13.717Z,92.76
2023-01-08T06:31:16.831Z,92.88
2023-01-08T06:34:19.496Z,92.87
2023-01-08T06:37:22.261Z,92.67
2023-01-08T06:40:25.025Z,93.11
2023-01-08T06:43:27.751Z,93.01
2023-01-08T06:46:30.771Z,93.11
2023-01-08T06:49:34.311Z,93.37
2023-01-08T06:52:36.776Z,93.27
2023-01-08T06:55:39.932Z,93.67
2023-01-08T06:58:42.447Z,93.63
2023-01-08T07:01:45.572Z,93.03
2023-01-08T07:04:48.485Z,93.10
2023-01-08T07:07:51.350Z,93.35
2023-01-08T07:10:54.106Z,93.32
2023-01-08T07:13:57.014Z,93.02
2023-01-08T07:16:59.794Z,93.64
2023-01-08T07:20:02.813Z,93.78
2023-01-08T07:23:07.946Z,93.42
2023-01-08T07:26:10.891Z,93.78
2023-01-08T07:29:13.301Z,93.55
2023-01-08T07:32:15.987Z,93.68
2023-01-08T07:35:18.868Z,93.62
2023-01-08T07:38:22.232Z,93.21
2023-01-08T07:41:24.757Z,93.15
2023-01-08T07:44:27.609Z,93.37
2023-01-08T07:47:30.278Z,93.29
2023-01-08T07:50:33.282Z,93.41
2023-01-08T07:53:37.040Z,93.43
2023-01-08T07:56:39.821Z,93.49
2023-01-08T07:59:42.351Z,92.77
2023-01-08T08:02:45.345Z,93.30
2023-01-08T08:05:48.115Z,93.24
2023-01-08T08:08:50.602Z,93.56
2023-01-08T08:11:53.601Z,93.41
2023-01-08T08:14:56.409Z,93.07
2023-01-08T08:17:59.305Z,92.97
2023-01-08T08:21:02.154Z,93.00
2023-01-08T08:24:05.023Z,92.64
2023-01-08T08:27:07.926Z,92.90
2023-01-08T08:30:11.839Z,92.97
2023-01-08T08:33:14.950Z,92.93
2023-01-08T08:36:17.819Z,93.10
2023-01-08T08:39:20.601Z,92.70
2023-01-08T08:42:23.373Z,92.71
2023-01-08T08:45:26.901Z,92.01
2023-01-08T08:48:29.630Z,92.78
2023-01-08T08:51:32.540Z,92.91
2023-01-08T08:54:35.180Z,93.16
2023-01-08T08:57:38.374Z,93.30
2023-01-08T09:00:43.742Z,93.24
2023-01-08T09:03:46.752Z,92.93
2023-01-08T09:06:49.575Z,93.24
2023-01-08T09:09:52.187Z,93.23
2023-01-08T09:12:54.885Z,93.64
2023-01-08T09:16:01.456Z,93.12
2023-01-08T09:19:04.574Z,93.79
2023-01-08T09:22:07.481Z,93.34
2023-01-08T09:25:09.943Z,93.23
2023-01-08T09:28:12.938Z,92.68
2023-01-08T09:31:15.850Z,93.18
2023-01-08T09:34:18.692Z,93.00
2023-01-08T09:37:23.322Z,93.06
2023-01-08T09:40:37.846Z,93.22
2023-01-08T09:43:44.362Z,93.24
2023-01-08T09:46:47.969Z,92.49
2023-01-08T09:49:55.105Z,92.68
2023-01-08T09:52:58.525Z,92.55
2023-01-08T09:56:11.251Z,92.27
2023-01-08T09:59:17.891Z,92.59
2023-01-08T10:02:24.068Z,92.95
2023-01-08T10:05:28.495Z,93.22
2023-01-08T10:08:32.603Z,93.59
2023-01-08T10:11:44.966Z,93.53
2023-01-08T10:14:49.957Z,93.59
2023-01-08T10:18:04.407Z,93.30
2023-01-08T10:21:12.217Z,93.74
2023-01-08T10:24:15.142Z,93.54
2023-01-08T10:27:19.277Z,92.72
2023-01-08T10:30:29.638Z,92.69
2023-01-08T10:33:46.317Z,92.84
2023-01-08T10:36:49.577Z,92.58
2023-01-08T10:39:53.082Z,92.68
2023-01-08T10:42:57.237Z,93.03
2023-01-08T10:46:15.261Z,92.98
2023-01-08T10:49:24.177Z,93.04
2023-01-08T10:52:32.902Z,92.54
2023-01-08T10:55:37.914Z,92.61
2023-01-08T10:58:42.247Z,92.31
2023-01-08T11:01:48.974Z,93.00
2023-01-08T11:04:52.423Z,92.88
2023-01-08T11:07:57.670Z,91.84
2023-01-08T11:11:02.073Z,91.96
2023-01-08T11:14:15.454Z,92.35
2023-01-08T11:17:18.144Z,93.19
2023-01-08T11:20:24.564Z,92.83
2023-01-08T11:23:28.960Z,92.53
2023-01-08T11:26:32.591Z,92.54
2023-01-08T11:29:59.656Z,92.44
2023-01-08T11:33:05.188Z,92.38
2023-01-08T11:36:18.204Z,92.32
2023-01-08T11:39:21.392Z,91.93
2023-01-08T11:42:48.711Z,92.42
2023-01-08T11:45:58.956Z,93.15
2023-01-08T11:49:13.424Z,92.81
2023-01-08T11:52:21.676Z,92.60
2023-01-08T11:55:42.858Z,92.61
2023-01-08T11:59:04.084Z,92.53
2023-01-08T12:02:50.459Z,92.83
2023-01-08T12:06:18.008Z,92.44
2023-01-08T12:09:40.198Z,92.95
2023-01-08T12:12:52.021Z,93.15
2023-01-08T12:16:06.803Z,93.25
2023-01-08T12:19:31.153Z,93.73
2023-01-08T12:23:21.804Z,92.63
2023-01-08T12:26:38.338Z,93.19
2023-01-08T12:30:05.604Z,92.83
2023-01-08T12:33:19.685Z,92.44
2023-01-08T12:36:30.722Z,92.74
2023-01-08T12:39:49.481Z,93.18
2023-01-08T12:43:00.453Z,93.04
2023-01-08T12:46:06.010Z,93.51
2023-01-08T12:49:14.014Z,93.07
2023-01-08T12:52:31.287Z,93.27
2023-01-08T12:55:47.679Z,92.93
2023-01-08T12:59:09.697Z,93.00
2023-01-08T13:02:33.919Z,93.21
2023-01-08T13:05:38.255Z,92.87
2023-01-08T13:08:44.582Z,92.88
2023-01-08T13:11:52.865Z,93.07
2023-01-08T13:14:55.664Z,93.24
2023-01-08T13:18:08.664Z,93.15
2023-01-08T13:21:12.815Z,93.83
2023-01-08T13:24:30.864Z,93.10
2023-01-08T13:27:33.527Z,93.55
2023-01-08T13:30:40.239Z,93.43
2023-01-08T13:33:44.177Z,93.03
2023-01-08T13:37:00.674Z,92.52
2023-01-08T13:40:06.997Z,93.27
2023-01-08T13:43:21.583Z,93.05
2023-01-08T13:46:24.099Z,93.36
2023-01-08T13:49:32.554Z,93.10
2023-01-08T13:52:43.246Z,93.14
2023-01-08T13:55:56.201Z,92.53
2023-01-08T13:58:59.291Z,93.28
2023-01-08T14:02:02.491Z,93.16
2023-01-08T14:05:19.248Z,93.03
2023-01-08T14:08:26.667Z,93.56
2023-01-08T14:11:40.886Z,93.44
2023-01-08T14:14:49.047Z,93.28
2023-01-08T14:17:52.590Z,93.29
2023-01-08T14:20:56.066Z,93.42
2023-01-08T14:23:58.993Z,93.70
2023-01-08T14:27:01.745Z,93.94
2023-01-08T14:30:15.948Z,93.81
2023-01-08T14:33:23.449Z,93.79
2023-01-08T14:36:26.870Z,93.77
2023-01-08T14:39:34.619Z,93.38
2023-01-08T14:42:50.061Z,93.67
2023-01-08T14:45:54.567Z,93.02
2023-01-08T14:48:58.194Z,93.64
2023-01-08T14:52:03.073Z,93.39
2023-01-08T14:55:06.320Z,93.28
2023-01-08T14:58:16.622Z,93.08
2023-01-08T15:01:24.873Z,93.13
2023-01-08T15:04:29.424Z,93.16
2023-01-08T15:07:32.227Z,93.28
2023-01-08T15:10:36.608Z,93.38
2023-01-08T15:13:39.157Z,93.75
2023-01-08T15:16:43.436Z,93.26
2023-01-08T15:19:50.749Z,93.84
2023-01-08T15:22:53.446Z,93.57
2023-01-08T15:25:56.774Z,93.81
2023-01-08T15:29:06.282Z,93.91
2023-01-08T15:32:15.110Z,93.61
2023-01-08T15:35:19.555Z,93.99
2023-01-08T15:38:23.829Z,94.26
2023-01-08T15:41:52.704Z,94.51
2023-01-08T15:44:55.153Z,94.23
2023-01-08T15:47:58.011Z,93.94
2023-01-08T15:51:00.602Z,93.77
2023-01-08T15:54:03.568Z,93.94
2023-01-08T15:57:06.132Z,94.43
2023-01-08T16:00:12.419Z,94.16
2023-01-08T16:03:15.882Z,93.49
2023-01-08T16:06:18.711Z,93.29
2023-01-08T16:09:21.602Z,93.58
2023-01-08T16:12:24.317Z,93.49
2023-01-08T16:15:28.040Z,93.20
2023-01-08T16:18:30.829Z,93.54
2023-01-08T16:21:33.400Z,93.48
2023-01-08T16:24:36.086Z,93.40
2023-01-08T16:27:39.569Z,93.76
2023-01-08T16:30:44.238Z,93.63
2023-01-08T16:33:47.165Z,93.61
2023-01-08T16:36:49.856Z,93.64
2023-01-08T16:39:52.759Z,93.59
2023-01-08T16:43:03.915Z,93.19
2023-01-08T16:46:16.259Z,93.04
2023-01-08T16:49:19.496Z,93.31
2023-01-08T16:52:22.149Z,93.27
2023-01-08T16:55:25.412Z,93.73
2023-01-08T16:58:29.478Z,93.64
2023-01-08T17:01:32.414Z,93.64
2023-01-08T17:04:34.997Z,93.35
2023-01-08T17:07:38.005Z,93.41
2023-01-08T17:10:40.467Z,93.94
2023-01-08T17:13:43.623Z,93.54
2023-01-08T17:16:47.435Z,93.48
2023-01-08T17:19:50.484Z,93.49
2023-01-08T17:22:53.122Z,93.39
2023-01-08T17:25:58.393Z,93.81
2023-01-08T17:29:01.304Z,93.51
2023-01-08T17:32:04.318Z,93.53
2023-01-08T17:35:07.280Z,93.53
2023-01-08T17:38:10.069Z,93.80
2023-01-08T17:41:31.909Z,93.64
2023-01-08T17:44:34.993Z,93.36
2023-01-08T17:47:37.856Z,93.41
2023-01-08T17:50:40.920Z,93.82
2023-01-08T17:53:43.404Z,93.78
2023-01-08T17:56:49.002Z,94.06
2023-01-08T17:59:51.798Z,93.62
2023-01-08T18:02:55.410Z,93.58
2023-01-08T18:05:58.188Z,93.77
2023-01-08T18:09:00.827Z,93.66
2023-01-08T18:12:03.744Z,93.64
2023-01-08T18:15:06.775Z,93.50
2023-01-08T18:18:09.262Z,93.08
2023-01-08T18:21:12.244Z,93.42
2023-01-08T18:24:19.749Z,93.17
2023-01-08T18:27:22.795Z,92.88
2023-01-08T18:30:26.972Z,92.81
2023-01-08T18:33:29.692Z,92.91
2023-01-08T18:36:32.554Z,92.69
2023-01-08T18:39:35.298Z,92.61
2023-01-08T18:42:38.217Z,92.66
2023-01-08T18:45:41.510Z,92.93
2023-01-08T18:48:43.989Z,92.84
2023-01-08T18:51:46.917Z,93.19
2023-01-08T18:54:49.394Z,93.38
2023-01-08T18:57:53.477Z,92.95
2023-01-08T19:00:56.290Z,92.66
2023-01-08T19:03:59.789Z,92.74
2023-01-08T19:07:02.720Z,92.82
2023-01-08T19:10:06.030Z,92.49
2023-01-08T19:13:08.941Z,92.70
2023-01-08T19:16:13.771Z,92.83
2023-01-08T19:19:17.526Z,92.64
2023-01-08T19:22:22.615Z,93.01
2023-01-08T19:25:25.304Z,92.74
2023-01-08T19:28:28.159Z,92.62
2023-01-08T19:31:30.791Z,92.45
2023-01-08T19:34:33.550Z,92.94
2023-01-08T19:37:36.526Z,93.01
2023-01-08T19:40:39.144Z,93.10
2023-01-08T19:43:42.147Z,93.35
2023-01-08T19:46:45.198Z,93.14
2023-01-08T19:49:49.373Z,92.96
2023-01-08T19:52:53.245Z,93.17
2023-01-08T19:55:55.902Z,93.63
2023-01-08T19:58:58.997Z,93.50
2023-01-08T20:02:02.278Z,93.56
2023-01-08T20:05:05.583Z,94.18
2023-01-08T20:08:08.665Z,94.08
2023-01-08T20:11:14.114Z,94.09
2023-01-08T20:14:17.096Z,94.13
2023-01-08T20:17:25.324Z,93.94
2023-01-08T20:20:28.045Z,93.90
2023-01-08T20:23:30.925Z,93.92
2023-01-08T20:26:36.089Z,94.09
2023-01-08T20:29:39.217Z,94.56
2023-01-08T20:32:42.216Z,94.81
2023-01-08T20:35:44.895Z,94.85
2023-01-08T20:38:52.606Z,94.93
2023-01-08T20:42:03.981Z,94.84
2023-01-08T20:45:08.646Z,94.97
2023-01-08T20:48:11.403Z,95.01
2023-01-08T20:51:14.034Z,94.64
2023-01-08T20:54:17.540Z,94.61
2023-01-08T20:57:20.197Z,94.42
2023-01-08T21:00:24.990Z,95.00
2023-01-08T21:03:28.141Z,94.97
2023-01-08T21:06:32.995Z,95.05
2023-01-08T21:09:35.821Z,94.98
2023-01-08T21:12:38.778Z,94.64
2023-01-08T21:15:41.482Z,94.88
2023-01-08T21:18:47.599Z,94.95
2023-01-08T21:21:50.198Z,95.19
2023-01-08T21:24:53.102Z,94.96
2023-01-08T21:27:55.664Z,95.10
2023-01-08T21:31:06.341Z,95.13
2023-01-08T21:34:11.515Z,95.18
2023-01-08T21:37:15.499Z,94.87
2023-01-08T21:40:19.043Z,94.52
2023-01-08T21:43:40.174Z,94.19
2023-01-08T21:46:42.966Z,94.42
2023-01-08T21:49:46.076Z,94.03
2023-01-08T21:53:07.471Z,93.81
2023-01-08T21:56:10.214Z,94.00
2023-01-08T21:59:12.645Z,93.39
2023-01-08T22:02:16.978Z,93.78
2023-01-08T22:05:19.465Z,93.68
2023-01-08T22:08:22.385Z,93.93
2023-01-08T22:11:25.030Z,93.63
2023-01-08T22:14:27.779Z,93.97
2023-01-08T22:17:30.744Z,93.46
2023-01-08T22:20:33.773Z,93.66
2023-01-08T22:23:37.141Z,93.72
2023-01-08T22:26:39.787Z,93.54
2023-01-08T22:29:42.214Z,93.63
2023-01-08T22:32:44.971Z,93.63
2023-01-08T22:35:47.656Z,93.88
2023-01-08T22:38:50.233Z,93.81
2023-01-08T22:41:52.901Z,93.91
2023-01-08T22:44:55.604Z,93.83
2023-01-08T22:47:58.347Z,93.70
2023-01-08T22:51:04.537Z,93.90
2023-01-08T22:54:07.029Z,93.78
2023-01-08T22:57:10.004Z,93.79
2023-01-08T23:00:13.060Z,93.40
2023-01-08T23:03:15.915Z,93.29
2023-01-08T23:06:20.378Z,93.74
2023-01-08T23:09:23.005Z,93.53
2023-01-08T23:12:26.097Z,93.50
2023-01-08T23:15:28.795Z,93.43
2023-01-08T23:18:31.535Z,93.32
2023-01-08T23:21:36.742Z,93.32
2023-01-08T23:24:39.238Z,93.88
2023-01-08T23:27:42.232Z,93.61
2023-01-08T23:30:44.669Z,93.73
2023-01-08T23:33:47.486Z,93.15
2023-01-08T23:36:50.331Z,93.25
2023-01-08T23:39:52.941Z,92.99
2023-01-08T23:42:55.829Z,92.96
2023-01-08T23:46:02.894Z,92.74
2023-01-08T23:49:07.322Z,92.26
2023-01-08T23:52:10.662Z,91.59
2023-01-08T23:55:13.103Z,91.74
2023-01-08T23:58:15.914Z,91.27
